リヤド の空港の天気 - METARとTAF

キング・ハーリド国際空港(リヤド) ( OERK / RUH ) - サウジアラビア リヤド
飛行場実況気象(Metar)
観測時間08/14 08:00 AST (08/14 05:00 UTC)
風向・風速北北西 3m/s
視程10km以上
天気現象
なし
気温34℃
湿度16%
気圧1004hPa
METAROERK 140500Z 33006KT CAVOK 34/05 Q1004 NOSIG
過去の天気等 Google飛行場航空写真 Wunderground天気予報

過去48時間のMETAR

飛行場予報(TAF)
発表時間: 8/14 02:00 AST (8/13 23:00 UTC)
予報対象時間: 14日3時 AST ~ 15日9時 AST
風向・風速不定 2m/s
視程7000m
なし
14日9時 AST ~ 14日11時 AST に徐々に
風向・風速北 8m/s
14日9時 AST ~ 14日19時 AST に一時的に
視程4000m
天気現象風塵 高い風塵
TAF OERK 132300Z 1400/1506 VRB03KT 7000 NSC
BECMG 1406/1408 35015KT
TEMPO 1406/1416 4000 DU BLDU